アトランタ の空港の天気 - METARとTAF

ハーツフィールド・ジャクソン・アトランタ国際空港 ( KATL / ATL ) - アメリカ合衆国 ジョージア州アトランタ
飛行場実況気象(Metar)
観測時間03/30 07:52 EDT (03/30 11:52 UTC)
風向・風速東南東 2m/s
視程10km以上
天気現象
少しの雲 雲底高度 4570m
全天の8割程度の雲 雲底高度 6100m
全天の8割程度の雲 雲底高度 7620m
気温17.2℃
湿度84%
気圧1014.5hPa
METARKATL 301152Z 11003KT 9SM FEW150 BKN200 BKN250 17/14 A2998 RMK AO2 SLP145 T01720144 10206 20172 53007
過去の天気等 Google飛行場航空写真 Wunderground天気予報

過去48時間のMETAR

飛行場予報(TAF)
発表時間: 3/30 07:29 EDT (3/30 11:29 UTC)
予報対象時間: 30日8時 EDT ~ 31日14時 EDT
風向・風速南南東 3m/s
視程10km以上
少しの雲 雲底高度 1,220m
30日11時 EDT から
風向・風速南南西 4m/s 瞬間風速 8m/s
視程10km以上
全天の4割程度の雲 雲底高度 1,520m
30日18時 EDT から
風向・風速南南西 5m/s 瞬間風速 10m/s
視程10km以上
天気現象周辺でしゅう雨
全天の8割程度の雲 雲底高度 1,520m
30日23時 EDT から
風向・風速南東 4m/s
視程8,050m
天気現象弱いしゅう雨
全天の8割程度の雲 雲底高度 910m
31日0時 EDT から 確率 30% で
風向・風速不定 10m/s 瞬間風速 15m/s
視程4,830m
天気現象雷雨
全天の8割程度の積乱雲 雲底高度 610m
31日4時 EDT から
風向・風速南西 5m/s
視程10km以上
天気現象周辺でしゅう雨
全天を覆う雲 雲底高度 460m
31日11時 EDT から
風向・風速西 5m/s
視程10km以上
全天を覆う雲 雲底高度 760m
KATL 301129Z 3012/3118 16005KT P6SM FEW040
FM301500 20008G16KT P6SM SCT050
FM302200 20010G20KT P6SM VCSH BKN050
FM310300 14008KT 5SM -SHRA BKN030
PROB30 3104/3108 VRB20G30KT 3SM TSRA BKN020CB
FM310800 23010KT P6SM VCSH OVC015
FM311500 27010KT P6SM OVC025